sensor_id;sensor_type;location;lat;lon;timestamp;P1;durP1;ratioP1;P2;durP2;ratioP2
42518;SDS011;28147;47.520;18.920;2023-11-22T00:01:29;6.32;;;3.42;;
42518;SDS011;28147;47.520;18.920;2023-11-22T00:03:54;5.25;;;3.00;;
42518;SDS011;28147;47.520;18.920;2023-11-22T00:06:20;5.57;;;2.67;;
42518;SDS011;28147;47.520;18.920;2023-11-22T00:08:45;7.93;;;3.40;;
42518;SDS011;28147;47.520;18.920;2023-11-22T00:15:09;6.15;;;3.10;;
42518;SDS011;28147;47.520;18.920;2023-11-22T00:17:36;8.32;;;3.38;;
42518;SDS011;28147;47.520;18.920;2023-11-22T00:21:39;5.35;;;3.08;;
42518;SDS011;28147;47.520;18.920;2023-11-22T00:24:05;6.93;;;3.90;;
42518;SDS011;28147;47.520;18.920;2023-11-22T00:26:39;5.72;;;2.92;;
42518;SDS011;28147;47.520;18.920;2023-11-22T00:29:04;5.47;;;2.95;;
42518;SDS011;28147;47.520;18.920;2023-11-22T00:31:30;5.32;;;2.92;;
42518;SDS011;28147;47.520;18.920;2023-11-22T00:33:55;6.25;;;3.30;;
42518;SDS011;28147;47.520;18.920;2023-11-22T00:37:15;6.47;;;2.88;;
42518;SDS011;28147;47.520;18.920;2023-11-22T00:39:40;5.82;;;2.88;;
42518;SDS011;28147;47.520;18.920;2023-11-22T00:42:06;5.35;;;2.90;;
42518;SDS011;28147;47.520;18.920;2023-11-22T00:44:32;5.43;;;3.05;;
42518;SDS011;28147;47.520;18.920;2023-11-22T00:46:58;5.32;;;3.15;;
42518;SDS011;28147;47.520;18.920;2023-11-22T00:49:24;6.70;;;2.88;;
42518;SDS011;28147;47.520;18.920;2023-11-22T00:51:49;8.55;;;3.38;;
42518;SDS011;28147;47.520;18.920;2023-11-22T00:54:16;7.40;;;3.15;;
42518;SDS011;28147;47.520;18.920;2023-11-22T00:56:41;4.45;;;2.75;;
42518;SDS011;28147;47.520;18.920;2023-11-22T00:59:07;7.45;;;4.25;;
42518;SDS011;28147;47.520;18.920;2023-11-22T01:01:33;7.25;;;3.20;;
42518;SDS011;28147;47.520;18.920;2023-11-22T01:03:59;5.90;;;3.08;;
42518;SDS011;28147;47.520;18.920;2023-11-22T01:06:24;6.18;;;3.20;;
42518;SDS011;28147;47.520;18.920;2023-11-22T01:08:50;6.03;;;3.40;;
42518;SDS011;28147;47.520;18.920;2023-11-22T01:12:10;5.50;;;3.28;;
42518;SDS011;28147;47.520;18.920;2023-11-22T01:14:37;6.32;;;3.38;;
42518;SDS011;28147;47.520;18.920;2023-11-22T01:17:28;4.63;;;2.40;;
42518;SDS011;28147;47.520;18.920;2023-11-22T01:19:53;5.68;;;3.13;;
42518;SDS011;28147;47.520;18.920;2023-11-22T01:22:18;4.90;;;2.47;;
42518;SDS011;28147;47.520;18.920;2023-11-22T01:24:44;5.45;;;2.72;;
42518;SDS011;28147;47.520;18.920;2023-11-22T01:27:10;5.35;;;2.22;;
42518;SDS011;28147;47.520;18.920;2023-11-22T01:29:35;5.65;;;2.30;;
42518;SDS011;28147;47.520;18.920;2023-11-22T01:32:01;5.13;;;2.05;;
42518;SDS011;28147;47.520;18.920;2023-11-22T01:34:26;4.80;;;1.98;;
42518;SDS011;28147;47.520;18.920;2023-11-22T01:36:52;3.92;;;2.17;;
42518;SDS011;28147;47.520;18.920;2023-11-22T01:42:17;5.00;;;2.47;;
42518;SDS011;28147;47.520;18.920;2023-11-22T01:46:28;4.70;;;1.77;;
42518;SDS011;28147;47.520;18.920;2023-11-22T01:48:54;3.85;;;1.95;;
42518;SDS011;28147;47.520;18.920;2023-11-22T01:53:44;5.20;;;1.90;;
42518;SDS011;28147;47.520;18.920;2023-11-22T01:56:11;3.50;;;1.90;;
42518;SDS011;28147;47.520;18.920;2023-11-22T01:58:36;3.95;;;2.05;;
42518;SDS011;28147;47.520;18.920;2023-11-22T02:01:02;4.65;;;1.98;;
42518;SDS011;28147;47.520;18.920;2023-11-22T02:03:29;4.38;;;1.63;;
42518;SDS011;28147;47.520;18.920;2023-11-22T02:05:55;4.07;;;2.10;;
42518;SDS011;28147;47.520;18.920;2023-11-22T02:08:21;3.78;;;1.92;;
42518;SDS011;28147;47.520;18.920;2023-11-22T02:10:56;4.90;;;1.52;;
42518;SDS011;28147;47.520;18.920;2023-11-22T02:13:22;3.25;;;1.38;;
42518;SDS011;28147;47.520;18.920;2023-11-22T02:15:47;4.00;;;2.30;;
42518;SDS011;28147;47.520;18.920;2023-11-22T02:18:13;3.33;;;1.48;;
42518;SDS011;28147;47.520;18.920;2023-11-22T02:20:39;3.25;;;1.50;;
42518;SDS011;28147;47.520;18.920;2023-11-22T02:23:08;3.15;;;1.50;;
42518;SDS011;28147;47.520;18.920;2023-11-22T02:26:45;4.05;;;1.58;;
42518;SDS011;28147;47.520;18.920;2023-11-22T02:29:19;3.22;;;1.48;;
42518;SDS011;28147;47.520;18.920;2023-11-22T02:31:45;2.92;;;1.38;;
42518;SDS011;28147;47.520;18.920;2023-11-22T02:34:10;3.40;;;1.40;;
42518;SDS011;28147;47.520;18.920;2023-11-22T02:36:36;3.30;;;1.40;;
42518;SDS011;28147;47.520;18.920;2023-11-22T02:39:02;2.53;;;1.45;;
42518;SDS011;28147;47.520;18.920;2023-11-22T02:41:27;3.80;;;1.60;;
42518;SDS011;28147;47.520;18.920;2023-11-22T02:43:54;3.20;;;1.40;;
42518;SDS011;28147;47.520;18.920;2023-11-22T02:46:20;4.53;;;1.80;;
42518;SDS011;28147;47.520;18.920;2023-11-22T02:48:46;2.53;;;1.40;;
42518;SDS011;28147;47.520;18.920;2023-11-22T02:51:11;2.97;;;1.70;;
42518;SDS011;28147;47.520;18.920;2023-11-22T02:53:38;2.38;;;1.30;;
42518;SDS011;28147;47.520;18.920;2023-11-22T02:56:11;2.58;;;1.35;;
42518;SDS011;28147;47.520;18.920;2023-11-22T02:58:37;3.83;;;1.60;;
42518;SDS011;28147;47.520;18.920;2023-11-22T03:03:07;2.47;;;1.67;;
42518;SDS011;28147;47.520;18.920;2023-11-22T03:05:35;5.43;;;1.45;;
42518;SDS011;28147;47.520;18.920;2023-11-22T03:08:45;2.67;;;1.30;;
42518;SDS011;28147;47.520;18.920;2023-11-22T03:11:10;2.83;;;1.35;;
42518;SDS011;28147;47.520;18.920;2023-11-22T03:18:29;2.72;;;1.20;;
42518;SDS011;28147;47.520;18.920;2023-11-22T03:20:54;3.30;;;1.20;;
42518;SDS011;28147;47.520;18.920;2023-11-22T03:23:20;2.15;;;1.20;;
42518;SDS011;28147;47.520;18.920;2023-11-22T03:25:46;3.53;;;1.30;;
42518;SDS011;28147;47.520;18.920;2023-11-22T03:28:11;2.65;;;1.20;;
42518;SDS011;28147;47.520;18.920;2023-11-22T03:32:28;3.25;;;1.67;;
42518;SDS011;28147;47.520;18.920;2023-11-22T03:35:54;2.90;;;1.40;;
42518;SDS011;28147;47.520;18.920;2023-11-22T03:40:28;4.30;;;1.50;;
42518;SDS011;28147;47.520;18.920;2023-11-22T03:43:32;3.50;;;1.60;;
42518;SDS011;28147;47.520;18.920;2023-11-22T03:46:24;3.55;;;1.60;;
42518;SDS011;28147;47.520;18.920;2023-11-22T03:48:49;3.95;;;1.50;;
42518;SDS011;28147;47.520;18.920;2023-11-22T03:51:25;2.55;;;1.45;;
42518;SDS011;28147;47.520;18.920;2023-11-22T03:53:51;6.07;;;1.45;;
42518;SDS011;28147;47.520;18.920;2023-11-22T03:56:59;2.00;;;0.93;;
42518;SDS011;28147;47.520;18.920;2023-11-22T04:01:29;2.63;;;1.35;;
42518;SDS011;28147;47.520;18.920;2023-11-22T04:03:54;2.05;;;1.00;;
42518;SDS011;28147;47.520;18.920;2023-11-22T04:06:20;2.67;;;1.27;;
42518;SDS011;28147;47.520;18.920;2023-11-22T04:08:45;2.78;;;1.40;;
42518;SDS011;28147;47.520;18.920;2023-11-22T04:11:12;3.25;;;1.30;;
42518;SDS011;28147;47.520;18.920;2023-11-22T04:13:38;2.33;;;1.20;;
42518;SDS011;28147;47.520;18.920;2023-11-22T04:16:04;2.67;;;1.30;;
42518;SDS011;28147;47.520;18.920;2023-11-22T04:19:41;2.45;;;1.20;;
42518;SDS011;28147;47.520;18.920;2023-11-22T04:23:56;2.28;;;1.42;;
42518;SDS011;28147;47.520;18.920;2023-11-22T04:26:22;2.30;;;1.13;;
42518;SDS011;28147;47.520;18.920;2023-11-22T04:28:49;1.63;;;1.00;;
42518;SDS011;28147;47.520;18.920;2023-11-22T04:31:15;1.95;;;1.23;;
42518;SDS011;28147;47.520;18.920;2023-11-22T04:33:40;2.40;;;1.23;;
42518;SDS011;28147;47.520;18.920;2023-11-22T04:36:06;2.85;;;1.30;;
42518;SDS011;28147;47.520;18.920;2023-11-22T04:38:31;2.70;;;1.10;;
42518;SDS011;28147;47.520;18.920;2023-11-22T04:40:59;3.20;;;1.30;;
42518;SDS011;28147;47.520;18.920;2023-11-22T04:43:24;3.38;;;1.20;;
42518;SDS011;28147;47.520;18.920;2023-11-22T04:45:49;3.25;;;1.20;;
42518;SDS011;28147;47.520;18.920;2023-11-22T04:48:15;2.65;;;1.00;;
42518;SDS011;28147;47.520;18.920;2023-11-22T04:50:41;2.13;;;0.98;;
42518;SDS011;28147;47.520;18.920;2023-11-22T04:53:08;2.63;;;1.20;;
42518;SDS011;28147;47.520;18.920;2023-11-22T04:55:35;3.38;;;1.33;;
42518;SDS011;28147;47.520;18.920;2023-11-22T04:58:00;3.38;;;1.15;;
42518;SDS011;28147;47.520;18.920;2023-11-22T05:00:26;3.03;;;1.30;;
42518;SDS011;28147;47.520;18.920;2023-11-22T05:02:51;2.90;;;1.20;;
42518;SDS011;28147;47.520;18.920;2023-11-22T05:05:16;2.65;;;1.25;;
42518;SDS011;28147;47.520;18.920;2023-11-22T05:07:42;3.47;;;1.30;;
42518;SDS011;28147;47.520;18.920;2023-11-22T05:10:09;2.72;;;1.17;;
42518;SDS011;28147;47.520;18.920;2023-11-22T05:12:43;2.33;;;1.27;;
42518;SDS011;28147;47.520;18.920;2023-11-22T05:15:19;1.73;;;1.10;;
42518;SDS011;28147;47.520;18.920;2023-11-22T05:17:45;3.22;;;1.10;;
42518;SDS011;28147;47.520;18.920;2023-11-22T05:20:10;1.83;;;1.10;;
42518;SDS011;28147;47.520;18.920;2023-11-22T05:23:20;2.13;;;1.10;;
42518;SDS011;28147;47.520;18.920;2023-11-22T05:25:47;1.58;;;0.88;;
42518;SDS011;28147;47.520;18.920;2023-11-22T05:28:12;2.38;;;0.90;;
42518;SDS011;28147;47.520;18.920;2023-11-22T05:30:37;1.55;;;0.90;;
42518;SDS011;28147;47.520;18.920;2023-11-22T05:35:17;3.08;;;1.10;;
42518;SDS011;28147;47.520;18.920;2023-11-22T05:41:53;2.28;;;1.00;;
42518;SDS011;28147;47.520;18.920;2023-11-22T05:44:54;2.22;;;1.10;;
42518;SDS011;28147;47.520;18.920;2023-11-22T05:47:19;1.63;;;1.00;;
42518;SDS011;28147;47.520;18.920;2023-11-22T05:51:15;2.22;;;0.98;;
42518;SDS011;28147;47.520;18.920;2023-11-22T05:53:40;1.85;;;1.23;;
42518;SDS011;28147;47.520;18.920;2023-11-22T06:00:16;2.53;;;1.30;;
42518;SDS011;28147;47.520;18.920;2023-11-22T06:05:19;3.47;;;1.20;;
42518;SDS011;28147;47.520;18.920;2023-11-22T06:07:44;2.15;;;1.35;;
42518;SDS011;28147;47.520;18.920;2023-11-22T06:10:10;2.78;;;0.90;;
42518;SDS011;28147;47.520;18.920;2023-11-22T06:15:03;1.52;;;1.00;;
42518;SDS011;28147;47.520;18.920;2023-11-22T06:17:29;4.20;;;1.30;;
42518;SDS011;28147;47.520;18.920;2023-11-22T06:19:55;2.95;;;1.20;;
42518;SDS011;28147;47.520;18.920;2023-11-22T06:22:21;2.42;;;1.08;;
42518;SDS011;28147;47.520;18.920;2023-11-22T06:24:47;4.82;;;1.42;;
42518;SDS011;28147;47.520;18.920;2023-11-22T06:27:13;2.13;;;1.02;;
42518;SDS011;28147;47.520;18.920;2023-11-22T06:29:40;2.33;;;1.17;;
42518;SDS011;28147;47.520;18.920;2023-11-22T06:32:08;2.83;;;1.33;;
42518;SDS011;28147;47.520;18.920;2023-11-22T06:34:34;3.90;;;1.60;;
42518;SDS011;28147;47.520;18.920;2023-11-22T06:37:01;3.33;;;1.33;;
42518;SDS011;28147;47.520;18.920;2023-11-22T06:39:27;3.08;;;1.27;;
42518;SDS011;28147;47.520;18.920;2023-11-22T06:41:52;1.98;;;1.00;;
42518;SDS011;28147;47.520;18.920;2023-11-22T06:44:18;3.53;;;1.35;;
42518;SDS011;28147;47.520;18.920;2023-11-22T06:46:43;2.28;;;1.13;;
42518;SDS011;28147;47.520;18.920;2023-11-22T06:49:09;1.90;;;0.93;;
42518;SDS011;28147;47.520;18.920;2023-11-22T06:51:34;2.25;;;1.33;;
42518;SDS011;28147;47.520;18.920;2023-11-22T06:54:00;2.60;;;1.50;;
42518;SDS011;28147;47.520;18.920;2023-11-22T06:56:25;2.70;;;1.40;;
42518;SDS011;28147;47.520;18.920;2023-11-22T06:58:50;3.35;;;0.90;;
42518;SDS011;28147;47.520;18.920;2023-11-22T07:01:16;1.38;;;0.90;;
42518;SDS011;28147;47.520;18.920;2023-11-22T07:03:42;2.47;;;1.10;;
42518;SDS011;28147;47.520;18.920;2023-11-22T07:06:07;2.60;;;1.40;;
42518;SDS011;28147;47.520;18.920;2023-11-22T07:08:33;1.58;;;0.77;;
42518;SDS011;28147;47.520;18.920;2023-11-22T07:10:59;2.58;;;1.05;;
42518;SDS011;28147;47.520;18.920;2023-11-22T07:13:25;4.25;;;1.65;;
42518;SDS011;28147;47.520;18.920;2023-11-22T07:15:51;4.50;;;1.40;;
42518;SDS011;28147;47.520;18.920;2023-11-22T07:18:18;2.83;;;1.30;;
42518;SDS011;28147;47.520;18.920;2023-11-22T07:20:44;3.55;;;1.60;;
42518;SDS011;28147;47.520;18.920;2023-11-22T07:23:09;2.50;;;1.27;;
42518;SDS011;28147;47.520;18.920;2023-11-22T07:25:39;2.95;;;1.48;;
42518;SDS011;28147;47.520;18.920;2023-11-22T07:28:04;2.83;;;1.30;;
42518;SDS011;28147;47.520;18.920;2023-11-22T07:30:30;3.28;;;1.40;;
42518;SDS011;28147;47.520;18.920;2023-11-22T07:32:58;2.33;;;1.40;;
42518;SDS011;28147;47.520;18.920;2023-11-22T07:35:26;2.97;;;1.27;;
42518;SDS011;28147;47.520;18.920;2023-11-22T07:37:53;2.55;;;1.42;;
42518;SDS011;28147;47.520;18.920;2023-11-22T07:40:19;2.40;;;1.20;;
42518;SDS011;28147;47.520;18.920;2023-11-22T07:42:47;1.80;;;1.20;;
42518;SDS011;28147;47.520;18.920;2023-11-22T07:45:12;3.03;;;1.10;;
42518;SDS011;28147;47.520;18.920;2023-11-22T07:47:38;2.38;;;1.13;;
42518;SDS011;28147;47.520;18.920;2023-11-22T07:50:08;3.50;;;1.60;;
42518;SDS011;28147;47.520;18.920;2023-11-22T07:52:36;1.48;;;1.00;;
42518;SDS011;28147;47.520;18.920;2023-11-22T07:55:03;1.73;;;1.15;;
42518;SDS011;28147;47.520;18.920;2023-11-22T07:57:33;2.08;;;0.98;;
42518;SDS011;28147;47.520;18.920;2023-11-22T08:00:01;2.00;;;0.95;;
42518;SDS011;28147;47.520;18.920;2023-11-22T08:02:29;2.20;;;1.25;;
42518;SDS011;28147;47.520;18.920;2023-11-22T08:04:56;3.22;;;1.33;;
42518;SDS011;28147;47.520;18.920;2023-11-22T08:07:21;1.67;;;0.95;;
42518;SDS011;28147;47.520;18.920;2023-11-22T08:09:47;3.35;;;1.55;;
42518;SDS011;28147;47.520;18.920;2023-11-22T08:12:13;3.05;;;1.30;;
42518;SDS011;28147;47.520;18.920;2023-11-22T08:14:38;2.63;;;1.42;;
42518;SDS011;28147;47.520;18.920;2023-11-22T08:17:05;3.03;;;1.48;;
42518;SDS011;28147;47.520;18.920;2023-11-22T08:19:31;4.07;;;1.58;;
42518;SDS011;28147;47.520;18.920;2023-11-22T08:21:56;3.45;;;1.50;;
42518;SDS011;28147;47.520;18.920;2023-11-22T08:24:22;3.05;;;1.70;;
42518;SDS011;28147;47.520;18.920;2023-11-22T08:26:47;3.13;;;1.58;;
42518;SDS011;28147;47.520;18.920;2023-11-22T08:29:13;3.60;;;1.83;;
42518;SDS011;28147;47.520;18.920;2023-11-22T08:31:39;4.53;;;1.88;;
42518;SDS011;28147;47.520;18.920;2023-11-22T08:34:05;2.58;;;1.48;;
42518;SDS011;28147;47.520;18.920;2023-11-22T08:36:32;3.47;;;1.45;;
42518;SDS011;28147;47.520;18.920;2023-11-22T08:50:40;3.88;;;2.13;;
42518;SDS011;28147;47.520;18.920;2023-11-22T08:53:06;3.78;;;2.10;;
42518;SDS011;28147;47.520;18.920;2023-11-22T08:55:31;3.38;;;1.67;;
42518;SDS011;28147;47.520;18.920;2023-11-22T08:57:59;3.03;;;1.55;;
42518;SDS011;28147;47.520;18.920;2023-11-22T09:00:24;2.13;;;1.33;;
42518;SDS011;28147;47.520;18.920;2023-11-22T09:02:53;4.60;;;1.60;;
42518;SDS011;28147;47.520;18.920;2023-11-22T09:05:20;3.65;;;1.63;;
42518;SDS011;28147;47.520;18.920;2023-11-22T09:07:46;2.70;;;1.40;;
42518;SDS011;28147;47.520;18.920;2023-11-22T09:10:12;5.20;;;1.50;;
42518;SDS011;28147;47.520;18.920;2023-11-22T09:12:39;2.75;;;1.45;;
42518;SDS011;28147;47.520;18.920;2023-11-22T09:15:09;3.22;;;1.60;;
42518;SDS011;28147;47.520;18.920;2023-11-22T09:20:14;4.22;;;1.80;;
42518;SDS011;28147;47.520;18.920;2023-11-22T09:22:49;3.67;;;1.75;;
42518;SDS011;28147;47.520;18.920;2023-11-22T09:25:25;3.08;;;1.50;;
42518;SDS011;28147;47.520;18.920;2023-11-22T09:27:53;7.28;;;1.77;;
42518;SDS011;28147;47.520;18.920;2023-11-22T09:30:27;2.97;;;1.35;;
42518;SDS011;28147;47.520;18.920;2023-11-22T09:32:59;3.30;;;1.83;;
42518;SDS011;28147;47.520;18.920;2023-11-22T09:35:27;6.57;;;1.50;;
42518;SDS011;28147;47.520;18.920;2023-11-22T09:38:03;2.53;;;1.52;;
42518;SDS011;28147;47.520;18.920;2023-11-22T09:40:29;2.40;;;1.27;;
42518;SDS011;28147;47.520;18.920;2023-11-22T09:42:58;3.55;;;1.58;;
42518;SDS011;28147;47.520;18.920;2023-11-22T09:45:26;2.83;;;1.55;;
42518;SDS011;28147;47.520;18.920;2023-11-22T09:47:52;3.58;;;1.50;;
42518;SDS011;28147;47.520;18.920;2023-11-22T09:50:23;2.60;;;1.50;;
42518;SDS011;28147;47.520;18.920;2023-11-22T09:52:55;3.53;;;1.48;;
42518;SDS011;28147;47.520;18.920;2023-11-22T09:55:26;3.42;;;1.60;;
42518;SDS011;28147;47.520;18.920;2023-11-22T09:57:54;4.25;;;1.52;;
42518;SDS011;28147;47.520;18.920;2023-11-22T10:00:23;3.33;;;1.98;;
42518;SDS011;28147;47.520;18.920;2023-11-22T10:02:52;4.15;;;1.95;;
42518;SDS011;28147;47.520;18.920;2023-11-22T10:05:19;4.15;;;1.77;;
42518;SDS011;28147;47.520;18.920;2023-11-22T10:07:45;3.58;;;1.83;;
42518;SDS011;28147;47.520;18.920;2023-11-22T10:10:13;4.55;;;2.13;;
42518;SDS011;28147;47.520;18.920;2023-11-22T10:12:42;3.47;;;1.80;;
42518;SDS011;28147;47.520;18.920;2023-11-22T10:15:15;3.00;;;1.60;;
42518;SDS011;28147;47.520;18.920;2023-11-22T10:17:54;4.63;;;2.42;;
42518;SDS011;28147;47.520;18.920;2023-11-22T10:20:25;3.10;;;1.63;;
42518;SDS011;28147;47.520;18.920;2023-11-22T10:23:01;3.25;;;1.77;;
42518;SDS011;28147;47.520;18.920;2023-11-22T10:25:27;5.10;;;2.45;;
42518;SDS011;28147;47.520;18.920;2023-11-22T10:27:54;4.75;;;3.05;;
42518;SDS011;28147;47.520;18.920;2023-11-22T10:30:20;5.63;;;2.90;;
42518;SDS011;28147;47.520;18.920;2023-11-22T10:32:45;4.90;;;2.78;;
42518;SDS011;28147;47.520;18.920;2023-11-22T10:35:11;8.52;;;3.75;;
42518;SDS011;28147;47.520;18.920;2023-11-22T10:37:39;23.85;;;9.82;;
42518;SDS011;28147;47.520;18.920;2023-11-22T10:40:07;8.77;;;4.32;;
42518;SDS011;28147;47.520;18.920;2023-11-22T10:42:35;6.43;;;3.65;;
42518;SDS011;28147;47.520;18.920;2023-11-22T10:45:03;5.45;;;3.30;;
42518;SDS011;28147;47.520;18.920;2023-11-22T10:47:32;6.80;;;3.90;;
42518;SDS011;28147;47.520;18.920;2023-11-22T10:50:03;8.02;;;3.95;;
42518;SDS011;28147;47.520;18.920;2023-11-22T10:52:32;5.60;;;3.28;;
42518;SDS011;28147;47.520;18.920;2023-11-22T10:55:04;5.97;;;3.70;;
42518;SDS011;28147;47.520;18.920;2023-11-22T10:57:32;6.25;;;3.97;;
42518;SDS011;28147;47.520;18.920;2023-11-22T11:00:03;8.65;;;4.45;;
42518;SDS011;28147;47.520;18.920;2023-11-22T11:02:37;8.32;;;5.00;;
42518;SDS011;28147;47.520;18.920;2023-11-22T11:05:14;9.20;;;4.55;;
42518;SDS011;28147;47.520;18.920;2023-11-22T11:07:48;8.52;;;5.10;;
42518;SDS011;28147;47.520;18.920;2023-11-22T11:10:19;8.57;;;5.15;;
42518;SDS011;28147;47.520;18.920;2023-11-22T11:12:46;9.98;;;5.50;;
42518;SDS011;28147;47.520;18.920;2023-11-22T11:15:12;9.38;;;5.57;;
42518;SDS011;28147;47.520;18.920;2023-11-22T11:17:38;12.35;;;6.55;;
42518;SDS011;28147;47.520;18.920;2023-11-22T11:20:05;9.35;;;6.05;;
42518;SDS011;28147;47.520;18.920;2023-11-22T11:22:32;8.15;;;5.07;;
42518;SDS011;28147;47.520;18.920;2023-11-22T11:25:04;9.98;;;5.22;;
42518;SDS011;28147;47.520;18.920;2023-11-22T11:27:34;8.90;;;5.03;;
42518;SDS011;28147;47.520;18.920;2023-11-22T11:33:11;8.48;;;4.75;;
42518;SDS011;28147;47.520;18.920;2023-11-22T11:35:44;7.32;;;4.20;;
42518;SDS011;28147;47.520;18.920;2023-11-22T11:38:15;9.90;;;4.03;;
42518;SDS011;28147;47.520;18.920;2023-11-22T11:40:46;7.95;;;4.18;;
42518;SDS011;28147;47.520;18.920;2023-11-22T11:43:13;7.28;;;4.07;;
42518;SDS011;28147;47.520;18.920;2023-11-22T11:45:39;7.57;;;4.22;;
42518;SDS011;28147;47.520;18.920;2023-11-22T11:48:11;7.13;;;4.50;;
42518;SDS011;28147;47.520;18.920;2023-11-22T11:50:38;9.10;;;4.10;;
42518;SDS011;28147;47.520;18.920;2023-11-22T11:53:03;7.57;;;4.55;;
42518;SDS011;28147;47.520;18.920;2023-11-22T11:55:29;8.98;;;4.80;;
42518;SDS011;28147;47.520;18.920;2023-11-22T11:57:55;7.60;;;4.43;;
42518;SDS011;28147;47.520;18.920;2023-11-22T12:00:22;7.25;;;4.40;;
42518;SDS011;28147;47.520;18.920;2023-11-22T12:02:49;7.40;;;4.32;;
42518;SDS011;28147;47.520;18.920;2023-11-22T12:05:17;7.35;;;4.15;;
42518;SDS011;28147;47.520;18.920;2023-11-22T12:07:45;6.90;;;3.75;;
42518;SDS011;28147;47.520;18.920;2023-11-22T12:10:10;10.27;;;4.70;;
42518;SDS011;28147;47.520;18.920;2023-11-22T12:12:36;8.15;;;5.13;;
42518;SDS011;28147;47.520;18.920;2023-11-22T12:15:03;9.43;;;5.55;;
42518;SDS011;28147;47.520;18.920;2023-11-22T12:17:29;6.72;;;4.32;;
42518;SDS011;28147;47.520;18.920;2023-11-22T12:20:08;5.35;;;2.50;;
42518;SDS011;28147;47.520;18.920;2023-11-22T12:22:38;5.35;;;2.53;;
42518;SDS011;28147;47.520;18.920;2023-11-22T12:25:06;5.25;;;3.08;;
42518;SDS011;28147;47.520;18.920;2023-11-22T12:27:32;6.63;;;3.10;;
42518;SDS011;28147;47.520;18.920;2023-11-22T12:29:57;6.53;;;3.25;;
42518;SDS011;28147;47.520;18.920;2023-11-22T12:32:26;5.22;;;3.33;;
42518;SDS011;28147;47.520;18.920;2023-11-22T12:34:51;5.50;;;3.33;;
42518;SDS011;28147;47.520;18.920;2023-11-22T12:37:22;6.15;;;3.78;;
42518;SDS011;28147;47.520;18.920;2023-11-22T12:39:49;4.72;;;2.53;;
42518;SDS011;28147;47.520;18.920;2023-11-22T12:42:17;5.78;;;3.30;;
42518;SDS011;28147;47.520;18.920;2023-11-22T12:44:51;7.60;;;4.65;;
42518;SDS011;28147;47.520;18.920;2023-11-22T12:47:33;6.63;;;3.65;;
42518;SDS011;28147;47.520;18.920;2023-11-22T12:50:00;6.35;;;3.83;;
42518;SDS011;28147;47.520;18.920;2023-11-22T12:52:27;10.60;;;4.95;;
42518;SDS011;28147;47.520;18.920;2023-11-22T12:54:53;9.32;;;5.05;;
42518;SDS011;28147;47.520;18.920;2023-11-22T12:57:18;9.38;;;5.32;;
42518;SDS011;28147;47.520;18.920;2023-11-22T12:59:44;9.57;;;6.60;;
42518;SDS011;28147;47.520;18.920;2023-11-22T13:02:09;10.13;;;6.20;;
42518;SDS011;28147;47.520;18.920;2023-11-22T13:04:34;11.73;;;6.57;;
42518;SDS011;28147;47.520;18.920;2023-11-22T13:07:00;10.98;;;7.00;;
42518;SDS011;28147;47.520;18.920;2023-11-22T13:09:26;11.75;;;7.35;;
42518;SDS011;28147;47.520;18.920;2023-11-22T13:11:51;12.10;;;8.02;;
42518;SDS011;28147;47.520;18.920;2023-11-22T13:14:17;14.65;;;6.68;;
42518;SDS011;28147;47.520;18.920;2023-11-22T13:16:43;10.45;;;7.13;;
42518;SDS011;28147;47.520;18.920;2023-11-22T13:19:10;10.88;;;7.40;;
42518;SDS011;28147;47.520;18.920;2023-11-22T13:21:36;10.73;;;7.00;;
42518;SDS011;28147;47.520;18.920;2023-11-22T13:24:01;10.15;;;7.53;;
42518;SDS011;28147;47.520;18.920;2023-11-22T13:26:28;10.15;;;7.22;;
42518;SDS011;28147;47.520;18.920;2023-11-22T13:28:53;10.70;;;6.97;;
42518;SDS011;28147;47.520;18.920;2023-11-22T13:31:20;13.40;;;7.05;;
42518;SDS011;28147;47.520;18.920;2023-11-22T13:33:46;11.30;;;6.65;;
42518;SDS011;28147;47.520;18.920;2023-11-22T13:36:12;11.18;;;7.20;;
42518;SDS011;28147;47.520;18.920;2023-11-22T13:38:39;9.93;;;6.45;;
42518;SDS011;28147;47.520;18.920;2023-11-22T13:41:05;10.82;;;5.68;;
42518;SDS011;28147;47.520;18.920;2023-11-22T13:43:30;10.68;;;5.63;;
42518;SDS011;28147;47.520;18.920;2023-11-22T13:45:58;9.20;;;6.05;;
42518;SDS011;28147;47.520;18.920;2023-11-22T13:48:23;9.77;;;6.22;;
42518;SDS011;28147;47.520;18.920;2023-11-22T13:50:49;12.40;;;5.68;;
42518;SDS011;28147;47.520;18.920;2023-11-22T13:53:15;10.77;;;6.32;;
42518;SDS011;28147;47.520;18.920;2023-11-22T13:55:42;8.70;;;5.80;;
42518;SDS011;28147;47.520;18.920;2023-11-22T13:58:08;11.65;;;6.32;;
42518;SDS011;28147;47.520;18.920;2023-11-22T14:00:34;10.93;;;5.50;;
42518;SDS011;28147;47.520;18.920;2023-11-22T14:03:00;9.48;;;5.57;;
42518;SDS011;28147;47.520;18.920;2023-11-22T14:05:33;8.57;;;5.22;;
42518;SDS011;28147;47.520;18.920;2023-11-22T14:08:01;8.23;;;5.22;;
42518;SDS011;28147;47.520;18.920;2023-11-22T14:10:27;8.40;;;5.32;;
42518;SDS011;28147;47.520;18.920;2023-11-22T14:12:53;8.13;;;4.93;;
42518;SDS011;28147;47.520;18.920;2023-11-22T14:15:19;8.68;;;4.70;;
42518;SDS011;28147;47.520;18.920;2023-11-22T14:17:44;7.50;;;4.70;;
42518;SDS011;28147;47.520;18.920;2023-11-22T14:20:14;6.47;;;4.18;;
42518;SDS011;28147;47.520;18.920;2023-11-22T14:22:40;8.27;;;4.75;;
42518;SDS011;28147;47.520;18.920;2023-11-22T14:25:07;8.23;;;4.45;;
42518;SDS011;28147;47.520;18.920;2023-11-22T14:27:36;9.38;;;4.90;;
42518;SDS011;28147;47.520;18.920;2023-11-22T14:30:03;8.50;;;4.45;;
42518;SDS011;28147;47.520;18.920;2023-11-22T14:32:32;8.93;;;4.50;;
42518;SDS011;28147;47.520;18.920;2023-11-22T14:35:04;8.20;;;4.80;;
42518;SDS011;28147;47.520;18.920;2023-11-22T14:37:32;9.20;;;4.72;;
42518;SDS011;28147;47.520;18.920;2023-11-22T14:39:58;7.47;;;4.30;;
42518;SDS011;28147;47.520;18.920;2023-11-22T14:42:24;13.27;;;4.40;;
42518;SDS011;28147;47.520;18.920;2023-11-22T14:44:50;6.82;;;4.13;;
42518;SDS011;28147;47.520;18.920;2023-11-22T14:47:16;6.35;;;3.50;;
42518;SDS011;28147;47.520;18.920;2023-11-22T14:49:48;6.70;;;3.97;;
42518;SDS011;28147;47.520;18.920;2023-11-22T14:52:17;9.07;;;3.70;;
42518;SDS011;28147;47.520;18.920;2023-11-22T14:54:44;6.63;;;3.95;;
42518;SDS011;28147;47.520;18.920;2023-11-22T14:57:10;5.63;;;3.85;;
42518;SDS011;28147;47.520;18.920;2023-11-22T14:59:37;6.25;;;3.30;;
42518;SDS011;28147;47.520;18.920;2023-11-22T15:02:03;6.70;;;3.25;;
42518;SDS011;28147;47.520;18.920;2023-11-22T15:04:34;6.15;;;3.47;;
42518;SDS011;28147;47.520;18.920;2023-11-22T15:07:01;6.20;;;3.50;;
42518;SDS011;28147;47.520;18.920;2023-11-22T15:09:27;5.03;;;3.05;;
42518;SDS011;28147;47.520;18.920;2023-11-22T15:11:53;5.82;;;3.47;;
42518;SDS011;28147;47.520;18.920;2023-11-22T15:14:20;6.57;;;2.90;;
42518;SDS011;28147;47.520;18.920;2023-11-22T15:16:47;5.85;;;2.85;;
42518;SDS011;28147;47.520;18.920;2023-11-22T15:19:12;6.25;;;3.40;;
42518;SDS011;28147;47.520;18.920;2023-11-22T15:21:38;6.15;;;2.88;;
42518;SDS011;28147;47.520;18.920;2023-11-22T15:24:03;5.47;;;3.08;;
42518;SDS011;28147;47.520;18.920;2023-11-22T15:26:29;5.28;;;2.78;;
42518;SDS011;28147;47.520;18.920;2023-11-22T15:28:55;5.43;;;3.17;;
42518;SDS011;28147;47.520;18.920;2023-11-22T15:31:20;6.15;;;3.13;;
42518;SDS011;28147;47.520;18.920;2023-11-22T15:33:47;6.50;;;2.78;;
42518;SDS011;28147;47.520;18.920;2023-11-22T15:36:13;6.03;;;2.95;;
42518;SDS011;28147;47.520;18.920;2023-11-22T15:39:27;5.43;;;3.45;;
42518;SDS011;28147;47.520;18.920;2023-11-22T15:41:53;5.47;;;2.65;;
42518;SDS011;28147;47.520;18.920;2023-11-22T15:44:18;5.75;;;3.08;;